Terminal Aerodrome Forecast
Issued by NWS

Home | Current Version | Previous Version | Text Only | Print | Product List | Glossary On
Versions: 1 2 3 4 5 6 7 8 9 10 11 12 13 14 15 16 17 18
000
FTUS46 KMTR 210500
TAFOAK
TAF
KOAK 210520Z 2106/2212 20005KT 5SM -RA BR SCT010 BKN035 OVC045
     FM211800 23006KT P6SM FEW010 BKN020
     FM220100 VRB03KT 6SM BR SCT009 BKN012
     FM220700 00000KT 4SM BR OVC012=

USA.gov is the U.S. government's official web portal to all federal, state and local government web resources and services.